Time;durP1;ratioP1;P1;durP2;ratioP2;P2;SDS_P1;SDS_P2;PMS_P1;PMS_P2;Temp;Humidity;BMP_temperature;BMP_pressure;BME280_temperature;BME280_humidity;BME280_pressure;Samples;Min_cycle;Max_cycle;Signal;HPM_P1;HPM_P2
2023/10/22 00:02:11;;;;;;;7.05;1.40;;;12.80;99.90;;;;;;5033502;28;20045;-70
2023/10/22 00:04:40;;;;;;;5.60;1.40;;;12.80;99.90;;;;;;5033392;28;20084;-70
2023/10/22 00:07:09;;;;;;;5.97;1.30;;;12.90;99.90;;;;;;5033195;28;20041;-70
2023/10/22 00:09:35;;;;;;;9.15;1.60;;;12.90;99.90;;;;;;5050001;28;20073;-70
2023/10/22 00:12:01;;;;;;;8.40;1.52;;;12.90;99.90;;;;;;5033283;28;20037;-70
2023/10/22 00:14:27;;;;;;;7.82;1.92;;;12.90;99.90;;;;;;5033127;28;20075;-70
2023/10/22 00:16:53;;;;;;;6.07;1.45;;;12.90;99.90;;;;;;5032596;28;20037;-70
2023/10/22 00:19:19;;;;;;;4.78;1.35;;;13.00;99.90;;;;;;5033410;28;20034;-70
2023/10/22 00:21:46;;;;;;;4.70;1.50;;;12.90;99.90;;;;;;5033337;28;20052;-70
2023/10/22 00:24:12;;;;;;;6.20;1.50;;;12.90;99.90;;;;;;5050204;28;20128;-70
2023/10/22 00:26:39;;;;;;;6.78;1.50;;;13.00;99.90;;;;;;5033313;28;20056;-70
2023/10/22 00:29:06;;;;;;;7.13;1.50;;;12.90;99.90;;;;;;5032937;28;20143;-70
2023/10/22 00:31:31;;;;;;;6.80;1.35;;;13.00;99.90;;;;;;5016375;28;20080;-70
2023/10/22 00:33:57;;;;;;;5.13;1.40;;;13.00;99.90;;;;;;5033133;28;20077;-70
2023/10/22 00:36:24;;;;;;;6.43;1.50;;;13.00;99.90;;;;;;5033129;28;20124;-70
2023/10/22 00:38:50;;;;;;;5.53;1.40;;;13.00;99.90;;;;;;5032745;28;20079;-70
2023/10/22 00:41:16;;;;;;;7.93;1.40;;;13.10;99.90;;;;;;5034032;28;20159;-70
2023/10/22 00:43:42;;;;;;;6.10;1.40;;;13.10;99.90;;;;;;5032801;28;20073;-70
2023/10/22 00:46:19;;;;;;;8.43;1.45;;;13.10;99.90;;;;;;5032633;28;20405;-70
2023/10/22 00:48:46;;;;;;;6.20;1.50;;;13.10;99.90;;;;;;5032527;28;20152;-70
2023/10/22 00:51:14;;;;;;;5.30;1.20;;;13.10;99.90;;;;;;5032605;28;20044;-69
2023/10/22 00:53:41;;;;;;;5.03;1.15;;;13.20;99.90;;;;;;5032388;28;20125;-69
2023/10/22 00:56:07;;;;;;;5.10;1.33;;;13.10;99.90;;;;;;5032587;28;20045;-70
2023/10/22 00:58:37;;;;;;;7.25;1.42;;;13.20;99.90;;;;;;5032364;28;20040;-70
2023/10/22 01:01:06;;;;;;;7.38;1.70;;;13.20;99.90;;;;;;5032683;28;20037;-70
2023/10/22 01:03:33;;;;;;;6.13;1.35;;;13.20;99.90;;;;;;5032245;28;20042;-70
2023/10/22 01:05:59;;;;;;;7.28;1.67;;;13.30;99.90;;;;;;5032399;28;20076;-70
2023/10/22 01:08:25;;;;;;;6.22;1.30;;;13.30;99.90;;;;;;5032339;28;20068;-70
2023/10/22 01:10:50;;;;;;;6.32;1.50;;;13.30;99.90;;;;;;5032109;28;20037;-70
2023/10/22 01:13:16;;;;;;;8.45;1.70;;;13.20;99.90;;;;;;5032348;28;20465;-70
2023/10/22 01:15:42;;;;;;;6.82;1.45;;;13.20;99.90;;;;;;5015955;28;20132;-70
2023/10/22 01:18:08;;;;;;;6.53;1.27;;;13.20;99.90;;;;;;5032353;28;20041;-70
2023/10/22 01:20:33;;;;;;;5.72;1.20;;;13.20;99.90;;;;;;5048851;28;20044;-70
2023/10/22 01:23:00;;;;;;;8.00;1.40;;;13.20;99.90;;;;;;5032080;28;20041;-70
2023/10/22 01:25:25;;;;;;;6.13;1.40;;;13.10;99.90;;;;;;5032108;28;20045;-70
2023/10/22 01:27:51;;;;;;;6.50;1.38;;;13.20;99.90;;;;;;5031336;28;20424;-70
2023/10/22 01:30:17;;;;;;;6.57;1.35;;;13.10;99.90;;;;;;5031557;28;20054;-70
2023/10/22 01:32:43;;;;;;;6.72;1.27;;;13.20;99.90;;;;;;5032103;28;20068;-70
2023/10/22 01:35:10;;;;;;;7.18;1.45;;;13.20;99.90;;;;;;5031925;28;20176;-70
2023/10/22 01:37:36;;;;;;;6.57;1.30;;;13.20;99.90;;;;;;5031831;28;20037;-70
2023/10/22 01:40:03;;;;;;;7.00;1.20;;;13.20;99.90;;;;;;5031914;28;20045;-70
2023/10/22 01:42:30;;;;;;;5.18;1.38;;;13.20;99.90;;;;;;5031948;28;20049;-70
2023/10/22 01:44:56;;;;;;;6.88;1.50;;;13.20;99.90;;;;;;5032044;28;20107;-70
2023/10/22 01:47:22;;;;;;;7.20;1.20;;;13.10;99.90;;;;;;5031777;28;20037;-70
2023/10/22 01:49:47;;;;;;;7.07;1.30;;;13.00;99.90;;;;;;5031888;28;20046;-70
2023/10/22 01:52:14;;;;;;;7.53;1.30;;;13.00;99.90;;;;;;5031835;28;20037;-70
2023/10/22 01:54:40;;;;;;;7.47;1.45;;;12.90;99.90;;;;;;5031963;28;20520;-69
2023/10/22 01:57:07;;;;;;;5.70;1.10;;;12.90;99.90;;;;;;5015446;28;20045;-69
2023/10/22 01:59:32;;;;;;;6.45;1.30;;;12.90;99.90;;;;;;5048610;28;20095;-70
2023/10/22 02:01:58;;;;;;;5.25;1.27;;;12.80;99.90;;;;;;5031910;28;20045;-69
2023/10/22 02:04:24;;;;;;;6.70;1.52;;;12.80;99.90;;;;;;5031546;28;20042;-69
2023/10/22 02:06:50;;;;;;;7.72;1.27;;;12.70;99.90;;;;;;5031599;28;20449;-69
2023/10/22 02:09:17;;;;;;;6.15;1.50;;;12.70;99.90;;;;;;5031696;28;20041;-69
2023/10/22 02:11:43;;;;;;;7.35;1.45;;;12.70;99.90;;;;;;5031674;28;20037;-69
2023/10/22 02:14:09;;;;;;;6.40;1.50;;;12.70;99.90;;;;;;5031449;28;20037;-69
2023/10/22 02:16:34;;;;;;;5.90;1.20;;;12.60;99.90;;;;;;5031305;28;20121;-69
2023/10/22 02:19:00;;;;;;;5.07;1.30;;;12.60;99.90;;;;;;5031762;28;20045;-70
2023/10/22 02:21:26;;;;;;;5.15;1.20;;;12.60;99.90;;;;;;5031455;28;20133;-69
2023/10/22 02:23:52;;;;;;;3.70;0.93;;;12.60;99.90;;;;;;5031438;28;20128;-70
2023/10/22 02:26:19;;;;;;;5.15;1.25;;;12.70;99.90;;;;;;5031721;28;20545;-70
2023/10/22 02:28:46;;;;;;;4.57;1.05;;;12.70;99.90;;;;;;5031145;28;20092;-70
2023/10/22 02:31:12;;;;;;;4.30;1.00;;;12.60;99.90;;;;;;5031436;28;20053;-70
2023/10/22 02:33:41;;;;;;;5.88;1.10;;;12.70;99.90;;;;;;5031287;28;20052;-70
2023/10/22 02:36:07;;;;;;;6.10;1.38;;;12.70;99.90;;;;;;5031420;28;20046;-70
2023/10/22 02:38:36;;;;;;;6.15;1.30;;;12.70;99.90;;;;;;5031555;28;20045;-70
2023/10/22 02:41:02;;;;;;;5.38;1.30;;;12.60;99.90;;;;;;5018236;28;20409;-69
2023/10/22 02:43:28;;;;;;;5.63;1.17;;;12.60;99.90;;;;;;5034883;28;20033;-70
2023/10/22 02:45:55;;;;;;;7.05;1.30;;;12.60;99.90;;;;;;5035087;28;20041;-70
2023/10/22 02:48:23;;;;;;;4.57;1.02;;;12.60;99.90;;;;;;5035100;28;20470;-70
2023/10/22 02:50:48;;;;;;;5.53;1.20;;;12.60;99.90;;;;;;5034844;28;20049;-70
2023/10/22 02:53:14;;;;;;;6.05;1.23;;;12.50;99.90;;;;;;5034834;28;20048;-70
2023/10/22 02:55:40;;;;;;;5.07;1.20;;;12.50;99.90;;;;;;5034727;28;20396;-70
2023/10/22 02:58:06;;;;;;;6.13;1.20;;;12.50;99.90;;;;;;5034583;28;20114;-70
2023/10/22 03:00:35;;;;;;;7.72;1.30;;;12.50;99.90;;;;;;5034887;28;20073;-70
2023/10/22 03:03:02;;;;;;;7.35;1.30;;;12.60;99.90;;;;;;5034598;28;20103;-70
2023/10/22 03:05:34;;;;;;;5.07;1.30;;;12.50;99.90;;;;;;5034497;28;20049;-70
2023/10/22 03:08:05;;;;;;;6.60;1.30;;;12.60;99.90;;;;;;5051161;28;20045;-70
2023/10/22 03:10:35;;;;;;;5.95;1.23;;;12.60;99.90;;;;;;5034408;28;20044;-70
2023/10/22 03:13:02;;;;;;;6.00;1.38;;;12.60;99.90;;;;;;5034675;28;20033;-70
2023/10/22 03:15:27;;;;;;;5.68;1.33;;;12.60;99.90;;;;;;5034509;28;20042;-69
2023/10/22 03:17:54;;;;;;;6.55;1.17;;;12.60;99.90;;;;;;5034424;28;20509;-70
2023/10/22 03:20:22;;;;;;;6.30;1.30;;;12.60;99.90;;;;;;5034225;28;20041;-69
2023/10/22 03:22:48;;;;;;;6.25;1.30;;;12.60;99.90;;;;;;5034368;28;20053;-70
2023/10/22 03:25:14;;;;;;;5.80;1.60;;;12.60;99.90;;;;;;5034162;28;20037;-70
2023/10/22 03:27:39;;;;;;;6.50;1.30;;;12.60;99.90;;;;;;5034610;28;20037;-70
2023/10/22 03:30:06;;;;;;;5.88;1.20;;;12.60;99.90;;;;;;5033938;28;20050;-70
2023/10/22 03:32:32;;;;;;;5.70;1.30;;;12.60;99.90;;;;;;5034401;28;20124;-70
2023/10/22 03:34:58;;;;;;;4.75;1.20;;;12.60;99.90;;;;;;5034206;28;20091;-69
2023/10/22 03:37:23;;;;;;;5.53;1.30;;;12.60;99.90;;;;;;5034026;28;20045;-70
2023/10/22 03:39:49;;;;;;;4.45;1.10;;;12.60;99.90;;;;;;5033930;28;20049;-70
2023/10/22 03:42:15;;;;;;;5.40;1.27;;;12.60;99.90;;;;;;5033997;28;20413;-70
2023/10/22 03:44:40;;;;;;;4.07;1.13;;;12.60;99.90;;;;;;5033728;28;20132;-70
2023/10/22 03:47:06;;;;;;;5.63;1.23;;;12.60;99.90;;;;;;5033946;28;20049;-70
2023/10/22 03:49:31;;;;;;;5.68;1.30;;;12.60;99.90;;;;;;5033598;28;20114;-70
2023/10/22 03:51:57;;;;;;;7.22;1.48;;;12.60;99.90;;;;;;5033003;28;20041;-70
2023/10/22 03:54:23;;;;;;;4.57;1.13;;;12.50;99.90;;;;;;5033970;28;20120;-70
2023/10/22 03:56:49;;;;;;;4.20;1.10;;;12.50;99.90;;;;;;5033617;28;20041;-70
2023/10/22 03:59:14;;;;;;;6.35;1.20;;;12.50;99.90;;;;;;5033886;28;20049;-70
2023/10/22 04:01:40;;;;;;;6.18;1.20;;;12.50;99.90;;;;;;5033461;28;20037;-70
2023/10/22 04:04:06;;;;;;;4.60;1.25;;;12.50;99.90;;;;;;5033331;28;20052;-70
2023/10/22 04:06:31;;;;;;;4.78;1.20;;;12.50;99.90;;;;;;5033445;28;20037;-70
2023/10/22 04:08:57;;;;;;;5.68;1.30;;;12.40;99.90;;;;;;5033449;28;20052;-70
2023/10/22 04:11:23;;;;;;;5.03;1.40;;;12.40;99.90;;;;;;5033321;28;20763;-70
2023/10/22 04:13:48;;;;;;;3.75;1.50;;;12.30;99.90;;;;;;5033324;28;20121;-70
2023/10/22 04:16:17;;;;;;;5.68;1.40;;;12.30;99.90;;;;;;5033604;28;20390;-70
2023/10/22 04:18:43;;;;;;;6.10;1.50;;;12.30;99.90;;;;;;5033313;28;20173;-70
2023/10/22 04:21:15;;;;;;;4.97;1.45;;;12.20;99.90;;;;;;5033270;28;20100;-70
2023/10/22 04:23:41;;;;;;;4.63;1.50;;;12.30;99.90;;;;;;5016734;28;20041;-70
2023/10/22 04:26:12;;;;;;;5.47;1.50;;;12.20;99.90;;;;;;5033128;28;20128;-70
2023/10/22 04:28:39;;;;;;;6.10;1.50;;;12.20;99.90;;;;;;5032724;28;20044;-70
2023/10/22 04:31:05;;;;;;;5.90;1.70;;;12.20;99.90;;;;;;5032945;28;20138;-69
2023/10/22 04:33:31;;;;;;;6.72;1.60;;;12.20;99.90;;;;;;5049429;28;20505;-70
2023/10/22 04:35:57;;;;;;;6.53;1.73;;;12.20;99.90;;;;;;5033114;28;20049;-70
2023/10/22 04:38:22;;;;;;;4.97;1.70;;;12.10;99.90;;;;;;5032821;28;20041;-70
2023/10/22 04:40:48;;;;;;;5.38;1.88;;;12.10;99.90;;;;;;5033041;28;20042;-69
2023/10/22 04:43:14;;;;;;;6.03;1.90;;;12.10;99.90;;;;;;5032692;28;20081;-70
2023/10/22 04:45:46;;;;;;;5.45;1.73;;;12.10;99.90;;;;;;5032884;28;20371;-70
2023/10/22 04:48:12;;;;;;;5.00;1.90;;;12.10;99.90;;;;;;5032897;28;20052;-69
2023/10/22 04:50:38;;;;;;;5.05;1.80;;;12.10;99.90;;;;;;5032410;28;20037;-69
2023/10/22 04:53:04;;;;;;;5.53;2.00;;;12.10;99.90;;;;;;5032716;28;20103;-70
2023/10/22 04:55:30;;;;;;;5.43;1.98;;;12.10;99.90;;;;;;5032612;28;20041;-69
2023/10/22 04:57:56;;;;;;;4.97;2.05;;;12.00;99.90;;;;;;5032469;28;20036;-69
2023/10/22 05:00:22;;;;;;;5.15;1.90;;;12.10;99.90;;;;;;5032804;28;20045;-69
2023/10/22 05:02:49;;;;;;;4.75;2.20;;;12.00;99.90;;;;;;5032435;28;20548;-69
2023/10/22 05:05:14;;;;;;;4.40;2.10;;;12.00;99.90;;;;;;5048808;28;20049;-69
2023/10/22 05:07:40;;;;;;;5.57;2.15;;;12.00;99.90;;;;;;5015838;28;20490;-69
2023/10/22 05:10:07;;;;;;;4.75;1.80;;;12.00;99.90;;;;;;5048841;28;20056;-69
2023/10/22 05:12:32;;;;;;;5.90;2.20;;;12.10;99.90;;;;;;5032563;28;20050;-69
2023/10/22 05:14:58;;;;;;;4.40;1.90;;;12.10;99.90;;;;;;5015850;28;20092;-70
2023/10/22 05:17:27;;;;;;;4.30;1.92;;;12.10;99.90;;;;;;5015712;28;20037;-69
2023/10/22 05:19:52;;;;;;;5.25;2.20;;;12.10;99.90;;;;;;5032106;28;20045;-69
2023/10/22 05:22:19;;;;;;;4.35;2.15;;;12.00;99.90;;;;;;5032603;28;20114;-70
2023/10/22 05:24:48;;;;;;;5.40;2.15;;;12.10;99.90;;;;;;5015640;28;20041;-69
2023/10/22 05:27:16;;;;;;;6.00;2.50;;;12.10;99.90;;;;;;5015552;28;20123;-69
2023/10/22 05:29:43;;;;;;;4.40;2.10;;;12.10;99.90;;;;;;5031873;28;20431;-69
2023/10/22 05:32:09;;;;;;;4.47;2.20;;;12.10;99.90;;;;;;5032197;28;20133;-70
2023/10/22 05:34:36;;;;;;;4.57;2.20;;;12.00;99.90;;;;;;5032045;28;20065;-70
2023/10/22 05:37:03;;;;;;;5.85;2.42;;;12.10;99.90;;;;;;5032265;28;20445;-69
2023/10/22 05:39:29;;;;;;;5.65;2.60;;;12.10;99.90;;;;;;5031892;28;20052;-69
2023/10/22 05:41:55;;;;;;;5.47;2.70;;;12.10;99.90;;;;;;5031875;28;20088;-69
2023/10/22 05:44:24;;;;;;;5.57;2.78;;;12.10;99.90;;;;;;5031829;28;20045;-69
2023/10/22 05:46:50;;;;;;;4.90;2.15;;;12.00;99.90;;;;;;5031725;28;20102;-69
2023/10/22 05:49:17;;;;;;;5.63;2.20;;;12.00;99.90;;;;;;5031645;28;20425;-69
2023/10/22 05:51:42;;;;;;;4.68;2.20;;;12.10;99.90;;;;;;5032161;28;20045;-69
2023/10/22 05:54:08;;;;;;;4.65;2.00;;;12.10;99.90;;;;;;5015235;28;20037;-69
2023/10/22 05:56:34;;;;;;;5.13;2.35;;;12.10;99.90;;;;;;5031777;28;20041;-69
2023/10/22 05:59:04;;;;;;;3.88;2.03;;;12.00;99.90;;;;;;5031640;28;20056;-69
2023/10/22 06:01:30;;;;;;;4.75;2.13;;;12.00;99.90;;;;;;5031654;28;20038;-69
2023/10/22 06:03:55;;;;;;;3.85;1.77;;;12.10;99.90;;;;;;5031928;28;20462;-69
2023/10/22 06:06:21;;;;;;;3.83;1.42;;;12.10;99.90;;;;;;5031956;28;20048;-69
2023/10/22 06:08:47;;;;;;;4.18;1.92;;;12.10;99.90;;;;;;5031555;28;20037;-69
2023/10/22 06:11:13;;;;;;;3.03;1.60;;;12.10;99.90;;;;;;5031730;28;20500;-68
2023/10/22 06:13:38;;;;;;;3.35;1.60;;;12.10;99.90;;;;;;5031577;28;20045;-69
2023/10/22 06:16:04;;;;;;;3.72;1.70;;;12.10;99.90;;;;;;5035128;28;20080;-68
2023/10/22 06:18:30;;;;;;;4.28;2.00;;;12.10;99.90;;;;;;5018997;28;20462;-69
2023/10/22 06:20:56;;;;;;;3.40;1.83;;;12.10;99.90;;;;;;5035526;28;20045;-69
2023/10/22 06:23:21;;;;;;;2.53;1.35;;;12.20;99.90;;;;;;5035443;28;20045;-69
2023/10/22 06:25:48;;;;;;;3.85;1.20;;;12.20;99.90;;;;;;5035371;28;20125;-69
2023/10/22 06:28:13;;;;;;;2.90;1.05;;;12.20;99.90;;;;;;5035290;28;20041;-70
2023/10/22 06:30:40;;;;;;;4.68;1.20;;;11.70;99.90;;;;;;5035064;28;20049;-69
2023/10/22 06:33:06;;;;;;;3.83;1.10;;;12.10;99.90;;;;;;5035407;28;20045;-69
2023/10/22 06:35:32;;;;;;;3.58;1.30;;;12.00;99.90;;;;;;5035148;28;20125;-69
2023/10/22 06:37:58;;;;;;;5.88;1.50;;;12.00;99.90;;;;;;5035169;28;20135;-69
2023/10/22 06:40:24;;;;;;;5.32;1.80;;;11.90;99.90;;;;;;5035069;28;20441;-69
2023/10/22 06:42:50;;;;;;;5.55;1.50;;;11.90;99.90;;;;;;5034992;28;20041;-69
2023/10/22 06:45:17;;;;;;;5.72;1.70;;;11.90;99.90;;;;;;5035249;28;20053;-69
2023/10/22 06:47:43;;;;;;;7.22;2.40;;;11.90;99.90;;;;;;5035074;28;20037;-69
2023/10/22 06:50:11;;;;;;;5.95;2.30;;;11.80;99.90;;;;;;5034853;28;20041;-69
2023/10/22 06:52:38;;;;;;;9.18;2.78;;;11.80;99.90;;;;;;5034828;28;20085;-69
2023/10/22 06:55:05;;;;;;;7.80;2.65;;;11.80;99.90;;;;;;5034724;28;20037;-69
2023/10/22 06:57:31;;;;;;;7.88;3.40;;;11.80;99.90;;;;;;5035067;28;20045;-69
2023/10/22 06:59:58;;;;;;;10.68;4.05;;;11.70;99.90;;;;;;5036025;28;20049;-69
2023/10/22 07:02:24;;;;;;;11.13;4.25;;;11.80;99.90;;;;;;5034663;28;20124;-69
2023/10/22 07:04:56;;;;;;;11.50;4.30;;;11.80;99.90;;;;;;5034541;28;20103;-69
2023/10/22 07:07:24;;;;;;;8.43;3.92;;;11.80;99.90;;;;;;5034896;28;20041;-69
2023/10/22 07:09:50;;;;;;;9.90;4.95;;;11.80;99.90;;;;;;5034432;28;20041;-69
2023/10/22 07:12:16;;;;;;;9.93;4.70;;;11.80;99.90;;;;;;5034783;28;20045;-69
2023/10/22 07:14:43;;;;;;;10.45;4.90;;;11.80;99.90;;;;;;5034759;28;20384;-69
2023/10/22 07:17:09;;;;;;;10.15;5.05;;;11.80;99.90;;;;;;5034709;28;20367;-70
2023/10/22 07:19:35;;;;;;;12.63;4.72;;;11.80;99.90;;;;;;5034263;28;20041;-70
2023/10/22 07:22:01;;;;;;;8.57;3.58;;;11.80;99.90;;;;;;5034272;28;20405;-69
2023/10/22 07:24:26;;;;;;;7.57;3.78;;;11.70;99.90;;;;;;5034236;28;20049;-69
2023/10/22 07:26:52;;;;;;;8.98;3.75;;;11.70;99.90;;;;;;5034184;28;20456;-69
2023/10/22 07:29:18;;;;;;;9.38;3.80;;;11.70;99.90;;;;;;5033981;28;20064;-69
2023/10/22 07:31:46;;;;;;;8.88;4.10;;;11.70;99.90;;;;;;5017569;28;20037;-69
2023/10/22 07:34:12;;;;;;;10.05;4.10;;;11.70;99.90;;;;;;5034302;28;20052;-69
2023/10/22 07:36:38;;;;;;;10.45;4.57;;;11.70;99.90;;;;;;5034095;28;20108;-69
2023/10/22 07:39:04;;;;;;;7.50;4.50;;;11.70;99.90;;;;;;5034037;28;20444;-69
2023/10/22 07:41:29;;;;;;;9.95;4.68;;;11.70;99.90;;;;;;5034228;28;20492;-69
2023/10/22 07:43:55;;;;;;;11.18;5.43;;;11.70;99.90;;;;;;5034015;28;20098;-69
2023/10/22 07:46:21;;;;;;;9.35;4.85;;;11.70;99.90;;;;;;5033877;28;20175;-69
2023/10/22 07:48:47;;;;;;;13.18;5.28;;;11.70;99.90;;;;;;5033679;28;20041;-69
2023/10/22 07:51:17;;;;;;;10.05;5.03;;;11.70;99.90;;;;;;5033941;28;20452;-69
2023/10/22 07:53:44;;;;;;;9.40;5.30;;;11.80;99.90;;;;;;5033679;28;20073;-70
2023/10/22 07:56:11;;;;;;;9.38;5.25;;;11.70;99.90;;;;;;5034035;28;20583;-70
2023/10/22 07:58:37;;;;;;;10.77;5.88;;;11.80;99.90;;;;;;5033571;28;20052;-70
2023/10/22 08:01:04;;;;;;;11.15;5.50;;;11.80;99.90;;;;;;5033503;28;20057;-71
2023/10/22 08:03:30;;;;;;;9.63;5.03;;;11.80;99.90;;;;;;5033550;28;20072;-70
2023/10/22 08:06:01;;;;;;;9.98;5.25;;;11.80;99.90;;;;;;5033574;28;20049;-70
2023/10/22 08:08:26;;;;;;;9.75;5.07;;;11.90;99.90;;;;;;5033664;28;20045;-71
2023/10/22 08:10:57;;;;;;;10.80;5.78;;;11.90;99.90;;;;;;5033368;28;20057;-70
2023/10/22 08:13:23;;;;;;;7.68;4.80;;;11.90;99.90;;;;;;5033356;28;20045;-70
2023/10/22 08:15:49;;;;;;;9.60;5.00;;;11.90;99.90;;;;;;5033476;28;20037;-70
2023/10/22 08:18:15;;;;;;;12.23;5.03;;;12.00;99.90;;;;;;5050097;28;20099;-70
2023/10/22 08:20:41;;;;;;;10.65;5.00;;;12.00;99.90;;;;;;5033446;28;20038;-70
2023/10/22 08:23:07;;;;;;;10.57;5.63;;;12.10;99.90;;;;;;5033129;28;20088;-70
2023/10/22 08:25:33;;;;;;;9.32;5.38;;;12.10;99.90;;;;;;5033424;28;20148;-70
2023/10/22 08:27:59;;;;;;;10.82;5.65;;;12.10;99.90;;;;;;5032964;28;20076;-70
2023/10/22 08:30:25;;;;;;;11.07;5.50;;;12.20;99.90;;;;;;5016310;28;20061;-70
2023/10/22 08:32:51;;;;;;;13.60;5.93;;;12.20;99.90;;;;;;5033151;28;20049;-70
2023/10/22 08:35:16;;;;;;;10.93;6.07;;;12.20;99.90;;;;;;5032785;28;20140;-70
2023/10/22 08:37:42;;;;;;;11.88;6.30;;;12.20;99.90;;;;;;5032669;28;20033;-70
2023/10/22 08:40:09;;;;;;;11.48;6.55;;;12.30;99.90;;;;;;5032800;28;20038;-70
2023/10/22 08:42:35;;;;;;;10.88;6.85;;;12.30;99.90;;;;;;5032778;28;20056;-71
2023/10/22 08:45:02;;;;;;;13.98;6.88;;;12.40;99.90;;;;;;5032819;28;20143;-70
2023/10/22 08:47:29;;;;;;;11.60;7.30;;;12.40;99.90;;;;;;5016518;28;20049;-70
2023/10/22 08:49:56;;;;;;;11.20;6.53;;;12.50;99.90;;;;;;5032622;28;20042;-70
2023/10/22 08:52:22;;;;;;;12.18;6.60;;;12.50;99.90;;;;;;5032469;28;20064;-70
2023/10/22 08:54:48;;;;;;;13.77;6.70;;;12.60;99.90;;;;;;5016117;28;20049;-70
2023/10/22 08:57:16;;;;;;;12.18;6.20;;;12.70;99.90;;;;;;5032454;28;20049;-71
2023/10/22 08:59:44;;;;;;;10.48;5.90;;;12.70;99.90;;;;;;5032641;28;20053;-69
2023/10/22 09:02:12;;;;;;;10.77;5.57;;;12.80;99.90;;;;;;5032467;28;20048;-69
2023/10/22 09:04:38;;;;;;;10.00;5.50;;;12.90;99.90;;;;;;5032555;28;20440;-70
2023/10/22 09:07:04;;;;;;;11.40;5.53;;;13.10;99.90;;;;;;5048932;28;20103;-71
2023/10/22 09:09:33;;;;;;;10.77;4.95;;;13.20;99.90;;;;;;5032303;28;20045;-70
2023/10/22 09:11:59;;;;;;;9.82;4.55;;;13.20;99.90;;;;;;5032619;28;20044;-70
2023/10/22 09:14:26;;;;;;;8.32;4.75;;;13.20;99.90;;;;;;5048919;28;20042;-69
2023/10/22 09:16:51;;;;;;;9.60;4.57;;;13.20;99.90;;;;;;5032198;28;20048;-69
2023/10/22 09:19:37;;;;;;;8.65;4.50;;;13.20;99.90;;;;;;5032324;28;20405;-70
2023/10/22 09:22:06;;;;;;;10.95;4.78;;;13.20;99.90;;;;;;5032380;28;20516;-69
2023/10/22 09:24:33;;;;;;;8.63;4.25;;;13.20;99.90;;;;;;5032092;28;20045;-69
2023/10/22 09:27:00;;;;;;;7.45;4.13;;;13.20;99.90;;;;;;5031926;28;20041;-69
2023/10/22 09:29:26;;;;;;;8.02;3.95;;;13.20;99.90;;;;;;5032077;28;20409;-70
2023/10/22 09:31:53;;;;;;;9.13;4.20;;;13.30;99.90;;;;;;5031963;28;20048;-70
2023/10/22 09:34:30;;;;;;;7.10;3.60;;;13.50;99.90;;;;;;5032035;28;20041;-69
2023/10/22 09:36:57;;;;;;;7.88;3.90;;;13.50;99.90;;;;;;5031909;28;20067;-70
2023/10/22 09:39:37;;;;;;;8.35;3.70;;;13.60;99.90;;;;;;5031967;28;20124;-70
2023/10/22 09:42:04;;;;;;;7.82;3.83;;;13.80;99.90;;;;;;5031823;28;20045;-70
2023/10/22 09:44:32;;;;;;;7.20;3.50;;;14.00;99.90;;;;;;5031970;28;20049;-70
2023/10/22 09:47:03;;;;;;;7.90;3.20;;;14.10;99.90;;;;;;5031778;28;20191;-70
2023/10/22 09:49:38;;;;;;;6.65;3.13;;;14.20;99.90;;;;;;5014656;28;20046;-70
2023/10/22 09:52:08;;;;;;;8.45;3.45;;;14.30;99.90;;;;;;5032232;28;20037;-70
2023/10/22 09:54:39;;;;;;;8.45;3.13;;;14.50;99.90;;;;;;5031757;28;20049;-69
2023/10/22 09:57:12;;;;;;;5.82;2.75;;;14.50;99.90;;;;;;5031740;28;20038;-70
2023/10/22 09:59:39;;;;;;;7.53;2.92;;;14.40;99.90;;;;;;5031617;28;20049;-70
2023/10/22 10:02:06;;;;;;;8.02;3.20;;;14.50;99.90;;;;;;5031756;28;20046;-70
2023/10/22 10:04:35;;;;;;;9.25;3.20;;;14.50;99.90;;;;;;5031680;28;20049;-70
2023/10/22 10:07:04;;;;;;;7.05;2.90;;;14.50;99.90;;;;;;5031579;28;20041;-70
2023/10/22 10:09:31;;;;;;;6.78;3.30;;;14.40;99.90;;;;;;5031732;28;20041;-70
2023/10/22 10:12:01;;;;;;;6.57;3.20;;;14.20;99.90;;;;;;5031710;28;20501;-70
2023/10/22 10:14:36;;;;;;;5.80;2.75;;;14.20;99.90;;;;;;5031640;28;20041;-70
2023/10/22 10:17:02;;;;;;;8.07;2.70;;;14.20;99.90;;;;;;5031570;28;20033;-70
2023/10/22 10:19:28;;;;;;;6.55;2.90;;;14.20;99.90;;;;;;5031540;28;20049;-70
2023/10/22 10:21:53;;;;;;;8.40;2.80;;;14.20;99.90;;;;;;5031465;28;20129;-70
2023/10/22 10:24:24;;;;;;;5.82;2.78;;;14.40;99.90;;;;;;5031495;28;20128;-70
2023/10/22 10:27:13;;;;;;;7.72;2.85;;;14.50;99.90;;;;;;5031642;28;20094;-71
2023/10/22 10:29:40;;;;;;;7.28;3.40;;;14.70;99.90;;;;;;5022193;28;20525;-70
2023/10/22 10:32:15;;;;;;;6.30;2.90;;;15.00;99.90;;;;;;5031497;28;20045;-70
2023/10/22 10:34:48;;;;;;;7.68;3.00;;;15.20;99.90;;;;;;5031397;28;20094;-70
2023/10/22 10:37:15;;;;;;;6.40;2.78;;;15.50;99.90;;;;;;5031318;28;20090;-71
2023/10/22 10:39:48;;;;;;;6.47;3.42;;;15.60;99.90;;;;;;5031302;28;20049;-71
2023/10/22 10:42:36;;;;;;;7.32;3.10;;;15.80;99.90;;;;;;5031252;28;20041;-71
2023/10/22 10:45:04;;;;;;;7.70;3.22;;;15.80;99.90;;;;;;5031202;28;20102;-71
2023/10/22 10:47:31;;;;;;;9.07;3.38;;;16.00;99.90;;;;;;5031194;28;20050;-70
2023/10/22 10:50:05;;;;;;;7.32;2.72;;;16.00;99.90;;;;;;5047882;28;20037;-71
2023/10/22 10:52:45;;;;;;;6.47;3.00;;;15.80;99.90;;;;;;5031517;28;20402;-71
2023/10/22 10:55:14;;;;;;;6.68;2.70;;;15.60;99.90;;;;;;5014695;28;20041;-71
2023/10/22 10:57:42;;;;;;;6.18;2.80;;;15.30;99.90;;;;;;5031368;28;20090;-71
2023/10/22 11:00:10;;;;;;;8.68;2.92;;;15.10;99.90;;;;;;5031662;28;20060;-70
2023/10/22 11:02:42;;;;;;;8.63;2.72;;;14.90;99.90;;;;;;5018295;28;20041;-70
2023/10/22 11:05:12;;;;;;;7.35;2.95;;;14.70;99.90;;;;;;5034934;28;20052;-70
2023/10/22 11:07:39;;;;;;;7.38;2.90;;;14.50;99.90;;;;;;5034889;28;20557;-70
2023/10/22 11:10:16;;;;;;;6.90;2.70;;;14.40;99.90;;;;;;5034601;28;20107;-71
2023/10/22 11:12:43;;;;;;;7.88;2.80;;;14.30;99.90;;;;;;5034794;28;20583;-70
2023/10/22 11:15:11;;;;;;;7.47;2.92;;;14.20;99.90;;;;;;5034495;28;20046;-70
2023/10/22 11:17:41;;;;;;;7.13;2.90;;;14.10;99.90;;;;;;5034689;28;20516;-70
2023/10/22 11:20:08;;;;;;;6.97;3.17;;;14.10;99.90;;;;;;5034594;28;20405;-70
2023/10/22 11:22:39;;;;;;;7.22;3.20;;;14.00;99.90;;;;;;5034331;28;20046;-71
2023/10/22 11:25:09;;;;;;;7.47;3.97;;;13.90;99.90;;;;;;5034404;28;20042;-70
2023/10/22 11:27:39;;;;;;;7.07;3.03;;;13.80;99.90;;;;;;5034420;28;20115;-70
2023/10/22 11:30:06;;;;;;;7.47;2.80;;;13.80;99.90;;;;;;5034022;28;20049;-70
2023/10/22 11:32:35;;;;;;;6.43;2.97;;;13.70;99.90;;;;;;5034096;28;20075;-70
2023/10/22 11:35:04;;;;;;;7.40;3.30;;;13.60;99.90;;;;;;5034346;28;20041;-70
2023/10/22 11:37:41;;;;;;;7.43;3.05;;;13.50;99.90;;;;;;5034390;28;20033;-70
2023/10/22 11:40:28;;;;;;;8.00;3.58;;;13.50;99.90;;;;;;5034054;28;20088;-70
2023/10/22 11:43:03;;;;;;;6.55;3.20;;;13.50;99.90;;;;;;5033910;28;20107;-70
2023/10/22 11:45:36;;;;;;;9.73;3.08;;;13.40;99.90;;;;;;5034053;28;20045;-70
2023/10/22 11:48:19;;;;;;;8.77;3.35;;;13.40;99.90;;;;;;5050461;28;20076;-70
2023/10/22 11:50:48;;;;;;;5.65;2.92;;;13.30;99.90;;;;;;5033708;28;20046;-71
2023/10/22 11:53:15;;;;;;;7.45;2.90;;;13.30;99.90;;;;;;5017509;28;20143;-71
2023/10/22 11:55:41;;;;;;;7.85;3.08;;;13.30;99.90;;;;;;5033695;28;20044;-71
2023/10/22 11:58:26;;;;;;;8.25;2.80;;;13.30;99.90;;;;;;5034090;28;20053;-71
2023/10/22 12:00:51;;;;;;;5.32;2.25;;;13.30;99.90;;;;;;5033894;28;20046;-71
2023/10/22 12:03:18;;;;;;;5.80;2.38;;;13.40;99.90;;;;;;5034009;28;20128;-71
2023/10/22 12:05:45;;;;;;;5.35;2.53;;;13.40;99.90;;;;;;5033479;28;20049;-70
2023/10/22 12:08:11;;;;;;;6.10;2.50;;;13.40;99.90;;;;;;5033590;28;20044;-71
2023/10/22 12:10:37;;;;;;;5.10;2.20;;;13.40;99.90;;;;;;5033366;28;20088;-70
2023/10/22 12:13:05;;;;;;;7.05;2.42;;;13.40;99.90;;;;;;5032561;28;20072;-70
2023/10/22 12:15:31;;;;;;;6.45;2.35;;;13.40;99.90;;;;;;5033588;28;20041;-71
2023/10/22 12:17:57;;;;;;;7.40;2.22;;;13.40;99.90;;;;;;5033224;28;20037;-70
2023/10/22 12:20:23;;;;;;;7.70;2.30;;;13.30;99.90;;;;;;5033131;28;20037;-70
2023/10/22 12:22:49;;;;;;;7.18;2.10;;;13.30;99.90;;;;;;5033203;28;20120;-70
2023/10/22 12:25:15;;;;;;;5.85;2.10;;;13.40;99.90;;;;;;5033097;28;20041;-70
2023/10/22 12:27:41;;;;;;;5.68;1.90;;;13.30;99.90;;;;;;5033203;28;20102;-70
2023/10/22 12:30:08;;;;;;;5.18;2.00;;;13.30;99.90;;;;;;5032833;28;20124;-70
2023/10/22 12:32:34;;;;;;;6.28;2.22;;;13.30;99.90;;;;;;5016681;28;20090;-70
2023/10/22 12:35:00;;;;;;;6.60;2.03;;;13.30;99.90;;;;;;5032883;28;20045;-70
2023/10/22 12:37:26;;;;;;;5.47;1.77;;;13.30;99.90;;;;;;5033113;28;20678;-70
2023/10/22 12:39:52;;;;;;;6.75;1.73;;;13.30;99.90;;;;;;5032851;28;20038;-70
2023/10/22 12:42:17;;;;;;;5.22;1.60;;;13.40;99.90;;;;;;5032866;28;20508;-70
2023/10/22 12:44:44;;;;;;;5.63;1.45;;;13.40;99.90;;;;;;5032618;28;20073;-70
2023/10/22 12:47:12;;;;;;;4.22;1.23;;;13.60;99.90;;;;;;5032818;28;20052;-70